Map

Track Data

SID SEASON NUMBER BASIN SUBBASIN NAME ISO_TIME NATURE LAT LON WMO_WIND WMO_PRES WMO_AGENCY TRACK_TYPE DIST2LAND LANDFALL IFLAG USA_AGENCY USA_ATCF_ID USA_LAT USA_LON USA_RECORD USA_STATUS USA_WIND USA_PRES USA_SSHS USA_R34_NE USA_R34_SE USA_R34_SW USA_R34_NW USA_R50_NE USA_R50_SE USA_R50_SW USA_R50_NW USA_R64_NE USA_R64_SE USA_R64_SW USA_R64_NW USA_POCI USA_ROCI USA_RMW USA_EYE TOKYO_LAT TOKYO_LON TOKYO_GRADE TOKYO_WIND TOKYO_PRES TOKYO_R50_DIR TOKYO_R50_LONG TOKYO_R50_SHORT TOKYO_R30_DIR TOKYO_R30_LONG TOKYO_R30_SHORT TOKYO_LAND CMA_LAT CMA_LON CMA_CAT CMA_WIND CMA_PRES HKO_LAT HKO_LON HKO_CAT HKO_WIND HKO_PRES NEWDELHI_LAT NEWDELHI_LON NEWDELHI_GRADE NEWDELHI_WIND NEWDELHI_PRES NEWDELHI_CI NEWDELHI_DP NEWDELHI_POCI REUNION_LAT REUNION_LON REUNION_TYPE REUNION_WIND REUNION_PRES REUNION_TNUM REUNION_CI REUNION_RMW REUNION_R34_NE REUNION_R34_SE REUNION_R34_SW REUNION_R34_NW REUNION_R50_NE REUNION_R50_SE REUNION_R50_SW REUNION_R50_NW REUNION_R64_NE REUNION_R64_SE REUNION_R64_SW REUNION_R64_NW BOM_LAT BOM_LON BOM_TYPE BOM_WIND BOM_PRES BOM_TNUM BOM_CI BOM_RMW BOM_R34_NE BOM_R34_SE BOM_R34_SW BOM_R34_NW BOM_R50_NE BOM_R50_SE BOM_R50_SW BOM_R50_NW BOM_R64_NE BOM_R64_SE BOM_R64_SW BOM_R64_NW BOM_ROCI BOM_POCI BOM_EYE BOM_POS_METHOD BOM_PRES_METHOD NADI_LAT NADI_LON NADI_CAT NADI_WIND NADI_PRES WELLINGTON_LAT WELLINGTON_LON WELLINGTON_WIND WELLINGTON_PRES DS824_LAT DS824_LON DS824_STAGE DS824_WIND DS824_PRES TD9636_LAT TD9636_LON TD9636_STAGE TD9636_WIND TD9636_PRES TD9635_LAT TD9635_LON TD9635_WIND TD9635_PRES TD9635_ROCI NEUMANN_LAT NEUMANN_LON NEUMANN_CLASS NEUMANN_WIND NEUMANN_PRES MLC_LAT MLC_LON MLC_CLASS MLC_WIND MLC_PRES USA_GUST BOM_GUST BOM_GUST_PER REUNION_GUST REUNION_GUST_PER USA_SEAHGT USA_SEARAD_NE USA_SEARAD_SE USA_SEARAD_SW USA_SEARAD_NW STORM_SPEED STORM_DIR
1959261N11143 1959 80 WP MM THELMA 1959-09-18 06:00:00 TS 11.2000 142.600 main 1514 1504 __O___________ -1 11.2000 142.600 0 1004 7 271
1959261N11143 1959 80 WP MM THELMA 1959-09-18 09:00:00 TS 11.2052 142.238 main 1500 1491 __P___________ -1 11.2052 142.238 0 1004 7 270
1959261N11143 1959 80 WP MM THELMA 1959-09-18 12:00:00 TS 11.2000 141.900 main 1491 1482 __O___________ -1 11.2000 141.900 0 1004 6 269
1959261N11143 1959 80 WP MM THELMA 1959-09-18 15:00:00 TS 11.1973 141.587 main 1482 1471 __P___________ -1 11.1973 141.587 0 1003 7 278
1959261N11143 1959 80 WP MM THELMA 1959-09-18 18:00:00 TS 11.3000 141.200 main 1477 1472 __O___________ -1 11.3000 141.200 1 29 1003 10 294
1959261N11143 1959 80 WP MM THELMA 1959-09-18 21:00:00 TS 11.6051 140.638 main 1483 1483 __P___________ -1 11.6051 140.638 1 29 1003 14 301
1959261N11143 1959 80 WP MM THELMA 1959-09-19 00:00:00 TS 12.0000 140.000 main 1503 1486 __O___________ -1 12.0000 140.000 1 29 1003 14 303
1959261N11143 1959 80 WP MM THELMA 1959-09-19 03:00:00 TS 12.3723 139.407 main 1486 1428 __P___________ -1 12.3723 139.407 1 29 1002 14 301
1959261N11143 1959 80 WP MM THELMA 1959-09-19 06:00:00 TS 12.7000 138.800 main 1428 1366 __O___________ -1 12.7000 138.800 1 29 1002 14 294
1959261N11143 1959 80 WP MM THELMA 1959-09-19 09:00:00 TS 12.9301 138.120 main 1355 1294 __P___________ -1 12.9301 138.120 1 29 1003 13 288
1959261N11143 1959 80 WP MM THELMA 1959-09-19 12:00:00 TS 13.1000 137.500 main 1294 1253 __O___________ -1 13.1000 137.500 1 29 1004 11 286
1959261N11143 1959 80 WP MM THELMA 1959-09-19 15:00:00 TS 13.2348 137.040 main 1243 1215 __P___________ -1 13.2348 137.040 1 1005 8 291
1959261N11143 1959 80 WP MM THELMA 1959-09-19 18:00:00 TS 13.4000 136.700 main 1215 1188 __O___________ -1 13.4000 136.700 0 1006 8 305
1959261N11143 1959 80 WP MM THELMA 1959-09-19 21:00:00 TS 13.6700 136.398 main 1190 1175 __P___________ -1 13.6700 136.398 0 1006 8 321
1959261N11143 1959 80 WP MM THELMA 1959-09-20 00:00:00 TS 14.0000 136.200 main 1176 1169 __O___________ -1 14.0000 136.200 0 1006 7 338
1959261N11143 1959 80 WP MM THELMA 1959-09-20 03:00:00 TS 14.3275 136.120 main 1171 1171 __P___________ -1 14.3275 136.120 0 1006 7 352
1959261N11143 1959 80 WP MM THELMA 1959-09-20 06:00:00 TS 14.7000 136.100 main 1180 1180 __O___________ -1 14.7000 136.100 0 1006 9 358
1959261N11143 1959 80 WP MM THELMA 1959-09-20 09:00:00 TS 15.1724 136.080 main 1193 1189 __P___________ -1 15.1724 136.080 0 1006 9 354
1959261N11143 1959 80 WP MM THELMA 1959-09-20 12:00:00 TS 15.6000 136.000 main 1195 1189 __O___________ -1 15.6000 136.000 0 1007 7 342
1959261N11143 1959 80 WP MM THELMA 1959-09-20 15:00:00 TS 15.8747 135.840 main 1185 1159 __P___________ -1 15.8747 135.840 0 1007 6 310
1959261N11143 1959 80 WP MM THELMA 1959-09-20 18:00:00 TS 16.0000 135.500 main 1159 1099 __O___________ -1 16.0000 135.500 0 1007 9 280
1959261N11143 1959 80 WP MM THELMA 1959-09-20 21:00:00 TS 16.0328 134.903 main 1099 1026 __P___________ -1 16.0328 134.903 0 1007 13 265
1959261N11143 1959 80 WP MM THELMA 1959-09-21 00:00:00 TS 15.9000 134.200 main 1026 953 __O___________ -1 15.9000 134.200 0 1007 14 251
1959261N11143 1959 80 WP MM THELMA 1959-09-21 03:00:00 TS 15.5874 133.577 main 953 877 __P___________ -1 15.5874 133.577 0 1007 14 239
1959261N11143 1959 80 WP MM THELMA 1959-09-21 06:00:00 TS 15.2000 133.000 main 877 815 __O___________ -1 15.2000 133.000 0 1007 12 236
1959261N11143 1959 80 WP MM THELMA 1959-09-21 09:00:00 TS 14.8921 132.508 main 815 752 __P___________ -1 14.8921 132.508 0 1006 11 238
1959261N11143 1959 80 WP MM THELMA 1959-09-21 12:00:00 TS 14.6000 132.000 main 752 680 __O___________ -1 14.6000 132.000 0 1006 13 242
1959261N11143 1959 80 WP MM THELMA 1959-09-21 15:00:00 TS 14.2852 131.342 main 670 598 __P___________ -1 14.2852 131.342 0 1006 14 245
1959261N11143 1959 80 WP MM THELMA 1959-09-21 18:00:00 TS 14.0000 130.700 main 598 550 __O___________ -1 14.0000 130.700 0 1006 12 246
1959261N11143 1959 80 WP MM THELMA 1959-09-21 21:00:00 TS 13.7996 130.243 main 540 491 __P___________ -1 13.7996 130.243 0 1006 10 245
1959261N11143 1959 80 WP MM THELMA 1959-09-22 00:00:00 TS 13.6000 129.800 main 491 430 __O___________ -1 13.6000 129.800 0 1006 11 244
1959261N11143 1959 80 WP MM THELMA 1959-09-22 03:00:00 TS 13.3255 129.239 main 419 348 __P___________ -1 13.3255 129.239 0 1005 13 243
1959261N11143 1959 80 WP MM THELMA 1959-09-22 06:00:00 TS 13.0000 128.600 main 348 __O___________ -1 13.0000 128.600 0 1004 14 242

Digital Typhoon Data and Search

About IBTrACS Database

This database is a web-friendly format of International Best Track Archive for Climate Stewardship (IBTrACS), a global best track data archive curated by NOAA dating back to 1842.

Updated: 2021-10-08